Time;durP1;ratioP1;P1;durP2;ratioP2;P2;SDS_P1;SDS_P2;PMS_P1;PMS_P2;Temp;Humidity;BMP_temperature;BMP_pressure;BME280_temperature;BME280_humidity;BME280_pressure;Samples;Min_cycle;Max_cycle;Signal;HPM_P1;HPM_P2
2021/04/11 00:01:43;;;;;;;16.97;9.43;;;;;;;3.03;100.00;96582.41;5014673;28;20206;-87
2021/04/11 00:04:09;;;;;;;23.73;11.63;;;;;;;3.18;100.00;96583.13;5014697;28;20227;-88
2021/04/11 00:06:36;;;;;;;116.37;51.27;;;;;;;3.22;100.00;96569.84;5014454;28;20261;-87
2021/04/11 00:09:06;;;;;;;24.63;13.87;;;;;;;3.17;100.00;96558.91;5014703;28;20282;-88
2021/04/11 00:11:33;;;;;;;8.50;5.27;;;;;;;2.96;100.00;96545.66;5014381;28;20196;-87
2021/04/11 00:14:00;;;;;;;9.80;6.67;;;;;;;3.22;100.00;96543.88;5014605;28;20199;-87
2021/04/11 00:16:27;;;;;;;5.73;3.97;;;;;;;3.05;100.00;96560.59;5014515;28;20254;-87
2021/04/11 00:18:54;;;;;;;16.43;10.23;;;;;;;3.25;100.00;96560.97;5014062;28;20223;-87
2021/04/11 00:21:20;;;;;;;57.63;32.73;;;;;;;3.31;100.00;96563.97;5014192;28;20219;-87
2021/04/11 00:23:47;;;;;;;39.03;20.43;;;;;;;3.21;100.00;96577.72;5014150;28;20223;-87
2021/04/11 00:26:15;;;;;;;42.47;22.43;;;;;;;3.04;100.00;96574.50;5014107;28;20239;-87
2021/04/11 00:28:42;;;;;;;47.47;28.90;;;;;;;3.07;100.00;96558.72;5014229;28;20591;-87
2021/04/11 00:31:08;;;;;;;36.93;20.73;;;;;;;2.90;100.00;96561.63;5014226;28;20785;-87
2021/04/11 00:33:37;;;;;;;15.07;9.77;;;;;;;2.91;100.00;96565.91;5014048;28;20229;-87
2021/04/11 00:36:05;;;;;;;15.90;11.20;;;;;;;3.00;100.00;96567.03;5014278;28;20202;-86
2021/04/11 00:38:33;;;;;;;5.17;4.67;;;;;;;3.35;100.00;96564.59;5013699;28;20290;-86
2021/04/11 00:41:04;;;;;;;3.77;3.43;;;;;;;3.24;100.00;96564.53;5013877;28;20207;-86
2021/04/11 00:43:32;;;;;;;3.47;2.90;;;;;;;3.25;100.00;96559.22;5013644;28;20186;-87
2021/04/11 00:46:10;;;;;;;3.97;2.63;;;;;;;3.06;100.00;96553.63;5013951;28;20199;-87
2021/04/11 00:48:38;;;;;;;2.90;2.70;;;;;;;3.06;100.00;96538.06;5013759;28;20333;-87
2021/04/11 00:51:07;;;;;;;2.67;2.47;;;;;;;3.06;100.00;96544.06;5013572;28;20250;-87
2021/04/11 00:53:34;;;;;;;23.77;13.40;;;;;;;3.14;100.00;96555.69;5013385;28;20322;-86
2021/04/11 00:56:02;;;;;;;16.77;9.30;;;;;;;3.02;100.00;96552.19;5013859;28;20238;-86
2021/04/11 00:58:31;;;;;;;8.67;5.03;;;;;;;2.85;100.00;96555.94;5013379;28;20290;-86
2021/04/11 01:00:59;;;;;;;6.23;4.47;;;;;;;2.80;100.00;96548.44;5013849;28;20279;-86
2021/04/11 01:03:28;;;;;;;8.27;4.57;;;;;;;2.69;100.00;96532.78;5013640;28;20202;-86
2021/04/11 01:05:56;;;;;;;7.87;6.27;;;;;;;2.73;100.00;96510.03;5013077;28;20262;-86
2021/04/11 01:08:25;;;;;;;8.33;7.30;;;;;;;2.65;100.00;96497.59;5013423;28;20195;-86
2021/04/11 01:10:57;;;;;;;5.53;4.37;;;;;;;2.73;100.00;96489.28;5013550;28;20199;-86
2021/04/11 01:13:24;;;;;;;4.40;3.70;;;;;;;2.77;100.00;96493.31;5013331;28;20176;-86
2021/04/11 01:15:51;;;;;;;6.27;4.47;;;;;;;2.62;100.00;96487.41;5013235;28;20200;-85
2021/04/11 01:18:19;;;;;;;7.80;6.83;;;;;;;2.61;100.00;96463.22;5013412;28;20629;-86
2021/04/11 01:20:46;;;;;;;4.93;4.43;;;;;;;2.66;100.00;96460.31;5013106;28;20203;-85
2021/04/11 01:23:28;;;;;;;6.07;4.10;;;;;;;2.41;100.00;96463.75;5012988;28;20291;-86
2021/04/11 01:25:59;;;;;;;5.80;3.63;;;;;;;2.35;100.00;96467.56;5013341;28;20286;-85
2021/04/11 01:28:29;;;;;;;5.60;4.37;;;;;;;2.50;100.00;96464.91;5013384;28;20618;-85
2021/04/11 01:30:58;;;;;;;5.87;3.23;;;;;;;2.66;100.00;96464.66;5013485;28;20282;-85
2021/04/11 01:33:28;;;;;;;3.10;2.80;;;;;;;2.59;100.00;96443.50;5013405;28;20664;-86
2021/04/11 01:35:58;;;;;;;3.87;3.47;;;;;;;2.57;100.00;96443.63;5013314;28;20579;-86
2021/04/11 01:38:26;;;;;;;3.77;3.10;;;;;;;2.39;100.00;96452.66;5013443;28;20196;-85
2021/04/11 01:41:00;;;;;;;3.73;3.30;;;;;;;2.35;100.00;96443.41;5013152;28;20579;-86
2021/04/11 01:43:27;;;;;;;6.37;3.37;;;;;;;2.47;100.00;96441.75;5012893;28;20659;-86
2021/04/11 01:45:55;;;;;;;4.67;2.93;;;;;;;2.49;100.00;96422.53;5012960;28;20587;-86
2021/04/11 01:48:23;;;;;;;3.63;3.17;;;;;;;2.56;100.00;96423.81;5013104;28;20358;-86
2021/04/11 01:50:51;;;;;;;3.70;3.40;;;;;;;2.36;100.00;96426.94;5012679;28;20293;-86
2021/04/11 01:53:20;;;;;;;6.33;3.30;;;;;;;2.46;100.00;96422.78;5012773;28;20771;-85
2021/04/11 01:55:46;;;;;;;3.87;2.97;;;;;;;2.36;100.00;96395.81;5012593;28;20286;-85
2021/04/11 01:58:15;;;;;;;3.40;3.10;;;;;;;2.30;100.00;96360.72;5012628;28;20195;-85
2021/04/11 02:00:44;;;;;;;3.67;3.13;;;;;;;2.30;100.00;96363.31;5012851;28;20231;-86
2021/04/11 02:03:13;;;;;;;3.30;3.00;;;;;;;2.12;100.00;96349.03;5013009;28;20229;-86
2021/04/11 02:05:41;;;;;;;4.50;2.93;;;;;;;2.23;100.00;96356.91;5016720;28;20202;-86
2021/04/11 02:08:10;;;;;;;2.77;2.57;;;;;;;2.21;100.00;96365.72;5016631;28;20195;-85
2021/04/11 02:10:40;;;;;;;6.60;4.07;;;;;;;2.21;100.00;96378.69;5016690;28;20304;-86
2021/04/11 02:13:07;;;;;;;5.27;3.73;;;;;;;2.25;100.00;96375.78;5025344;28;20202;-86
2021/04/11 02:15:40;;;;;;;6.27;4.50;;;;;;;2.16;100.00;96376.41;5036499;28;20198;-86
2021/04/11 02:18:07;;;;;;;4.13;3.73;;;;;;;2.22;100.00;96352.66;5036132;28;20187;-86
2021/04/11 02:20:35;;;;;;;6.77;3.53;;;;;;;2.00;100.00;96368.81;5035943;28;20769;-86
2021/04/11 02:23:02;;;;;;;4.30;3.90;;;;;;;2.02;100.00;96366.16;5036408;28;20229;-86
2021/04/11 02:25:33;;;;;;;3.13;2.93;;;;;;;1.99;100.00;96363.75;5036232;28;20190;-86
2021/04/11 02:28:01;;;;;;;3.33;2.97;;;;;;;2.02;100.00;96351.41;5035975;28;20226;-86
2021/04/11 02:30:29;;;;;;;3.87;3.23;;;;;;;2.00;100.00;96348.09;5035863;28;20237;-86
2021/04/11 02:32:58;;;;;;;13.63;7.43;;;;;;;2.11;100.00;96360.31;5036168;28;20240;-86
2021/04/11 02:35:28;;;;;;;142.90;68.50;;;;;;;2.08;100.00;96361.38;5036177;28;20580;-86
2021/04/11 02:37:58;;;;;;;92.73;45.83;;;;;;;1.75;100.00;96333.38;5018455;28;20199;-85
2021/04/11 02:40:30;;;;;;;72.30;36.07;;;;;;;1.85;100.00;96287.75;5015854;28;20227;-86
2021/04/11 02:42:58;;;;;;;31.40;19.53;;;;;;;1.71;100.00;96220.50;5016261;28;20578;-86
2021/04/11 02:45:27;;;;;;;17.17;9.40;;;;;;;1.71;100.00;96198.94;5015851;28;20774;-86
2021/04/11 02:47:55;;;;;;;9.83;6.13;;;;;;;1.86;100.00;96200.47;5015870;28;20202;-86
2021/04/11 02:50:26;;;;;;;13.07;5.90;;;;;;;1.83;100.00;96208.44;5015888;28;20202;-86
2021/04/11 02:52:56;;;;;;;8.30;5.80;;;;;;;1.74;100.00;96185.78;5015692;28;20311;-86
2021/04/11 02:55:24;;;;;;;7.37;5.73;;;;;;;1.58;100.00;96179.06;5016395;28;20203;-86
2021/04/11 02:57:54;;;;;;;7.10;5.83;;;;;;;1.74;100.00;96170.25;5016112;28;20239;-86
2021/04/11 03:00:23;;;;;;;8.00;4.43;;;;;;;1.55;100.00;96188.81;5031128;28;20299;-86
2021/04/11 03:02:51;;;;;;;20.00;13.77;;;;;;;1.65;100.00;96166.50;5035462;28;20578;-84
2021/04/11 03:05:21;;;;;;;16.23;13.30;;;;;;;1.39;100.00;96178.69;5035707;28;20282;-86
2021/04/11 03:07:54;;;;;;;7.73;6.03;;;;;;;1.31;100.00;96174.00;5035652;28;20187;-87
2021/04/11 03:10:25;;;;;;;5.20;4.10;;;;;;;1.64;100.00;96175.22;5027314;28;20743;-87
2021/04/11 03:12:53;;;;;;;4.87;4.27;;;;;;;1.64;100.00;96186.41;5015774;28;20210;-86
2021/04/11 03:15:23;;;;;;;4.23;3.50;;;;;;;1.77;100.00;96201.13;5015005;28;20249;-86
2021/04/11 03:17:52;;;;;;;6.97;4.03;;;;;;;1.79;100.00;96210.44;5015581;28;20257;-86
2021/04/11 03:20:23;;;;;;;4.60;4.00;;;;;;;1.71;100.00;96209.31;5015228;28;20231;-86
2021/04/11 03:22:53;;;;;;;5.67;3.47;;;;;;;1.72;100.00;96208.38;5015342;28;20227;-87
2021/04/11 03:25:20;;;;;;;3.30;3.00;;;;;;;1.79;100.00;96204.41;5015259;28;20294;-87
2021/04/11 03:27:52;;;;;;;5.00;4.03;;;;;;;1.85;100.00;96204.00;5015314;28;20682;-87
2021/04/11 03:30:24;;;;;;;17.63;10.17;;;;;;;1.71;100.00;96214.50;5015208;28;20187;-87
2021/04/11 03:32:54;;;;;;;6.37;5.60;;;;;;;1.81;100.00;96213.75;5015166;28;20666;-88
2021/04/11 03:35:26;;;;;;;3.60;3.30;;;;;;;1.67;100.00;96232.84;5015399;28;20293;-88
2021/04/11 03:37:56;;;;;;;4.97;3.20;;;;;;;1.67;100.00;96229.44;5015626;28;20198;-87
2021/04/11 03:40:26;;;;;;;4.33;3.33;;;;;;;1.54;100.00;96221.66;5020754;28;20356;-87
2021/04/11 03:42:58;;;;;;;3.90;2.90;;;;;;;1.47;100.00;96223.00;5034820;28;20183;-87
2021/04/11 03:45:25;;;;;;;81.50;43.77;;;;;;;1.30;100.00;96211.19;5035019;28;20270;-87
2021/04/11 03:47:55;;;;;;;55.53;36.23;;;;;;;1.30;100.00;96197.41;5034871;28;20312;-86
2021/04/11 03:50:27;;;;;;;39.70;25.53;;;;;;;1.46;100.00;96195.44;5034611;28;20198;-87
2021/04/11 03:53:01;;;;;;;16.17;10.37;;;;;;;1.36;100.00;96197.84;5034421;28;20240;-86
2021/04/11 03:55:32;;;;;;;23.13;12.53;;;;;;;1.48;100.00;96196.16;5025160;28;20338;-89
2021/04/11 03:58:03;;;;;;;25.17;13.87;;;;;;;1.53;100.00;96198.47;5032748;28;20278;-89
2021/04/11 04:00:33;;;;;;;19.37;13.43;;;;;;;1.45;100.00;96206.72;5014642;28;20215;-89
2021/04/11 04:03:08;;;;;;;22.80;12.67;;;;;;;1.59;100.00;96201.47;5015188;28;20195;-90
2021/04/11 04:05:37;;;;;;;20.83;11.77;;;;;;;1.46;100.00;96195.44;5014592;28;20198;-89
2021/04/11 04:08:05;;;;;;;15.43;10.53;;;;;;;1.29;100.00;96194.00;5014537;28;20203;-89
2021/04/11 04:10:38;;;;;;;21.07;11.50;;;;;;;1.43;100.00;96196.47;5021587;28;20199;-89
2021/04/11 04:13:09;;;;;;;20.23;13.80;;;;;;;1.43;100.00;96191.31;5034543;28;20193;-91
2021/04/11 04:15:45;;;;;;;18.70;13.60;;;;;;;1.55;100.00;96183.63;5034392;28;20267;-91
2021/04/11 04:18:43;;;;;;;14.87;11.50;;;;;;;1.49;100.00;96186.63;5034286;28;20662;-91
2021/04/11 04:21:24;;;;;;;16.93;9.27;;;;;;;1.27;100.00;96176.91;4998947;28;20195;-91
2021/04/11 04:23:59;;;;;;;15.43;11.57;;;;;;;1.48;100.00;96175.44;5034061;28;20187;-91
2021/04/11 04:26:49;;;;;;;8.87;7.13;;;;;;;1.42;100.00;96181.03;5033276;28;20183;-91
2021/04/11 04:29:26;;;;;;;11.17;8.17;;;;;;;1.46;100.00;96181.69;5027557;28;20194;-91
2021/04/11 04:32:06;;;;;;;15.30;13.00;;;;;;;1.44;100.00;96186.94;5033765;28;20277;-91
2021/04/11 04:34:39;;;;;;;18.83;12.87;;;;;;;1.50;100.00;96188.31;5034029;28;20186;-92
2021/04/11 04:37:16;;;;;;;13.93;10.40;;;;;;;1.53;100.00;96180.31;5033764;28;20187;-87
2021/04/11 04:39:52;;;;;;;11.73;8.40;;;;;;;1.31;100.00;96180.94;5033556;28;20591;-96
2021/04/11 04:42:26;;;;;;;12.20;10.43;;;;;;;1.37;100.00;96175.34;5014129;28;20205;-87
2021/04/11 04:45:01;;;;;;;23.33;16.57;;;;;;;1.43;100.00;96174.94;5013915;28;20630;-88
2021/04/11 04:47:40;;;;;;;15.60;12.87;;;;;;;1.50;100.00;96159.81;5014010;28;20276;-94
2021/04/11 04:50:14;;;;;;;15.03;9.97;;;;;;;1.65;100.00;96140.59;5014662;28;20252;-88
2021/04/11 04:53:02;;;;;;;10.27;8.70;;;;;;;1.52;100.00;96140.63;5032954;28;20613;-96
2021/04/11 04:55:34;;;;;;;6.10;5.50;;;;;;;1.51;100.00;96123.44;5015546;28;20702;-91
2021/04/11 04:58:11;;;;;;;5.43;4.90;;;;;;;1.64;100.00;96118.22;5013651;28;20245;-90
2021/04/11 05:00:50;;;;;;;6.70;4.30;;;;;;;1.61;100.00;96119.25;5013534;28;20227;-90
2021/04/11 05:03:20;;;;;;;5.77;5.27;;;;;;;1.75;100.00;96133.84;5013491;28;20195;-90
2021/04/11 05:05:53;;;;;;;8.30;6.47;;;;;;;1.71;100.00;96123.81;5013432;28;20714;-94
2021/04/11 05:08:29;;;;;;;19.40;10.30;;;;;;;1.96;100.00;96115.94;5013338;28;20638;-90
2021/04/11 05:11:04;;;;;;;19.00;14.30;;;;;;;1.96;100.00;96117.72;5013292;28;20197;-89
2021/04/11 05:13:36;;;;;;;14.80;12.27;;;;;;;1.97;100.00;96115.00;5013660;28;20176;-91
2021/04/11 05:16:13;;;;;;;13.47;11.70;;;;;;;2.10;100.00;96118.38;5013147;28;20245;-94
2021/04/11 05:18:45;;;;;;;11.80;9.77;;;;;;;2.20;100.00;96115.94;5014206;28;20179;-89
2021/04/11 05:21:17;;;;;;;11.07;8.23;;;;;;;2.18;100.00;96122.19;5013290;28;20263;-89
2021/04/11 05:23:50;;;;;;;10.67;8.17;;;;;;;2.33;100.00;96160.00;5013149;28;20542;-88
2021/04/11 05:26:34;;;;;;;11.27;9.00;;;;;;;2.41;100.00;96152.47;5013137;28;20234;-86
2021/04/11 05:29:07;;;;;;;38.63;29.90;;;;;;;2.68;100.00;96148.81;5013087;28;20198;-88
2021/04/11 05:31:52;;;;;;;;;;;;;;;;;;;;;
2021/04/11 05:35:01;;;;;;;35.13;26.30;;;;;;;2.95;100.00;96161.53;5021342;28;20281;-85
2021/04/11 05:37:52;;;;;;;20.53;14.90;;;;;;;2.89;100.00;96186.16;4985145;28;20195;-88
2021/04/11 05:40:23;;;;;;;17.37;13.33;;;;;;;3.01;100.00;96180.06;5012984;28;20235;-88
2021/04/11 05:42:56;;;;;;;33.33;18.80;;;;;;;3.28;100.00;96174.53;5013070;28;20683;-87
2021/04/11 05:45:26;;;;;;;11.40;9.20;;;;;;;3.51;100.00;96174.59;5012820;28;20199;-88
2021/04/11 05:48:08;;;;;;;18.23;11.37;;;;;;;3.74;100.00;96168.44;5013129;28;20190;-88
2021/04/11 05:50:40;;;;;;;8.07;7.17;;;;;;;3.96;100.00;96182.38;5013084;28;20183;-87
2021/04/11 05:53:11;;;;;;;16.27;8.40;;;;;;;3.98;100.00;96201.25;5012689;28;20297;-88
2021/04/11 05:55:42;;;;;;;9.37;7.20;;;;;;;4.09;100.00;96195.22;5013112;28;20262;-88
2021/04/11 05:58:15;;;;;;;10.73;7.27;;;;;;;4.26;100.00;96199.91;5013018;28;20679;-88
2021/04/11 06:00:46;;;;;;;14.87;10.57;;;;;;;4.48;100.00;96201.66;5013172;28;20294;-89
2021/04/11 06:03:19;;;;;;;14.27;9.50;;;;;;;4.64;100.00;96222.06;5012577;28;20187;-88
2021/04/11 06:05:52;;;;;;;21.87;14.90;;;;;;;4.76;100.00;96227.13;5012182;28;20192;-85
2021/04/11 06:08:26;;;;;;;8.77;7.30;;;;;;;4.69;100.00;96249.41;5012203;28;20631;-86
2021/04/11 06:11:00;;;;;;;8.47;6.27;;;;;;;4.93;100.00;96241.38;5012309;28;20627;-84
2021/04/11 06:13:36;;;;;;;8.83;7.83;;;;;;;5.11;100.00;96243.44;5022119;28;20195;-84
2021/04/11 06:16:08;;;;;;;10.17;7.67;;;;;;;5.04;100.00;96263.13;5025458;28;20191;-88
2021/04/11 06:18:36;;;;;;;10.57;8.30;;;;;;;5.24;100.00;96273.59;5017956;28;20645;-87
2021/04/11 06:21:11;;;;;;;9.53;6.90;;;;;;;5.66;100.00;96288.41;5012283;28;20227;-88
2021/04/11 06:23:46;;;;;;;7.47;6.67;;;;;;;5.86;100.00;96300.63;5012698;28;20717;-87
2021/04/11 06:26:18;;;;;;;10.10;6.77;;;;;;;5.99;100.00;96312.66;5012807;28;20322;-87
2021/04/11 06:28:53;;;;;;;5.93;4.70;;;;;;;6.11;100.00;96356.00;5012456;28;20275;-88
2021/04/11 06:31:23;;;;;;;8.27;5.30;;;;;;;6.30;100.00;96408.28;5012746;28;20191;-88
2021/04/11 06:33:55;;;;;;;7.93;4.63;;;;;;;6.45;100.00;96489.75;5012205;28;20291;-88
2021/04/11 06:36:26;;;;;;;4.37;3.60;;;;;;;6.71;100.00;96520.66;5012355;28;20249;-88
2021/04/11 06:38:57;;;;;;;5.93;4.90;;;;;;;6.99;100.00;96529.63;5012803;28;20192;-88
2021/04/11 06:41:37;;;;;;;4.60;3.83;;;;;;;7.00;100.00;96536.53;5021349;28;20233;-87
2021/04/11 06:44:34;;;;;;;5.50;4.17;;;;;;;7.28;100.00;96575.03;5031948;28;20193;-88
2021/04/11 06:47:21;;;;;;;4.50;3.07;;;;;;;7.21;100.00;96613.13;5029739;28;20206;-88
2021/04/11 06:50:05;;;;;;;5.27;2.90;;;;;;;7.31;100.00;96610.56;5033111;28;20182;-88
2021/04/11 06:52:59;;;;;;;4.83;3.60;;;;;;;7.44;100.00;96605.94;5035462;28;20226;-88
2021/04/11 06:55:44;;;;;;;8.27;3.30;;;;;;;7.81;100.00;96608.81;5036057;28;20310;-87
2021/04/11 06:58:21;;;;;;;3.20;2.90;;;;;;;8.16;100.00;96622.44;5035742;28;20205;-88
2021/04/11 07:01:11;;;;;;;6.70;4.37;;;;;;;8.43;100.00;96637.53;5035147;28;20648;-88
2021/04/11 07:04:14;;;;;;;10.50;7.20;;;;;;;8.85;100.00;96632.84;5025259;28;20341;-88
2021/04/11 07:07:19;;;;;;;4.67;3.97;;;;;;;9.12;100.00;96673.25;5022885;28;20711;-88
2021/04/11 07:09:51;;;;;;;5.00;3.10;;;;;;;8.84;100.00;96706.38;4943754;28;20743;-88
2021/04/11 07:12:50;;;;;;;2.80;2.57;;;;;;;9.25;100.00;96711.34;5035268;28;20206;-88
2021/04/11 07:15:28;;;;;;;3.60;2.67;;;;;;;9.46;100.00;96728.72;5035114;28;20194;-88
2021/04/11 07:18:39;;;;;;;7.10;3.20;;;;;;;9.87;100.00;96675.03;5035044;28;20186;-88
2021/04/11 07:21:57;;;;;;;5.27;3.47;;;;;;;9.90;100.00;96763.16;5034869;28;20309;-88
2021/04/11 07:24:55;;;;;;;2.87;2.67;;;;;;;9.81;100.00;96753.53;5034953;28;20191;-88
2021/04/11 07:27:34;;;;;;;4.57;3.20;;;;;;;10.08;100.00;96735.19;5019808;28;20209;-88
2021/04/11 07:30:16;;;;;;;6.07;4.73;;;;;;;10.77;100.00;96775.13;5035156;28;20573;-87
2021/04/11 07:33:03;;;;;;;3.73;3.03;;;;;;;10.86;100.00;96825.03;5035118;28;20266;-88
2021/04/11 07:35:57;;;;;;;4.03;3.13;;;;;;;10.68;100.00;96821.56;5034764;28;20218;-87
2021/04/11 07:38:55;;;;;;;5.93;3.70;;;;;;;11.09;100.00;96814.97;5034975;28;20625;-88
2021/04/11 07:41:48;;;;;;;11.10;4.80;;;;;;;11.34;100.00;96781.81;5020661;28;20215;-88
2021/04/11 07:44:54;;;;;;;3.77;3.30;;;;;;;10.96;100.00;96848.66;5015363;28;20235;-89
2021/04/11 07:47:33;;;;;;;4.50;3.50;;;;;;;11.16;100.00;96802.88;5015161;28;20207;-88
2021/04/11 07:50:18;;;;;;;5.80;4.30;;;;;;;10.84;100.00;96805.13;5014762;28;20195;-88
2021/04/11 07:53:16;;;;;;;3.30;3.00;;;;;;;10.98;100.00;96838.84;5002036;28;20270;-89
2021/04/11 07:55:57;;;;;;;4.00;3.60;;;;;;;11.32;100.00;96780.31;5014580;28;20199;-90
2021/04/11 07:58:57;;;;;;;4.73;3.70;;;;;;;11.67;100.00;96826.84;5015096;28;20567;-90
2021/04/11 08:01:52;;;;;;;4.70;4.23;;;;;;;11.57;100.00;96855.91;4946713;28;20277;-90
2021/04/11 08:04:40;;;;;;;4.23;3.00;;;;;;;11.54;100.00;96873.81;5014498;28;20286;-90
2021/04/11 08:07:25;;;;;;;5.10;4.47;;;;;;;11.55;100.00;96893.88;5015018;28;20708;-90
2021/04/11 08:10:03;;;;;;;6.63;4.47;;;;;;;11.59;100.00;96884.69;5014456;28;20184;-89
2021/04/11 08:12:59;;;;;;;4.70;3.43;;;;;;;11.84;100.00;96909.47;5014534;28;20274;-90
2021/04/11 08:15:30;;;;;;;3.27;2.83;;;;;;;12.35;100.00;96974.66;5002184;28;20195;-90
2021/04/11 08:18:33;;;;;;;6.50;3.43;;;;;;;11.99;100.00;97023.91;5014889;28;20602;-90
2021/04/11 08:21:26;;;;;;;3.77;3.10;;;;;;;12.05;100.00;97049.66;5004243;28;20222;-89
2021/04/11 08:24:26;;;;;;;3.80;2.83;;;;;;;12.11;100.00;97071.94;5011538;28;20199;-86
2021/04/11 08:27:16;;;;;;;3.83;2.73;;;;;;;12.66;100.00;97106.09;5013588;28;20200;-89
2021/04/11 08:30:13;;;;;;;6.03;4.30;;;;;;;13.08;100.00;97122.13;5033719;28;20179;-90
2021/04/11 08:33:12;;;;;;;8.17;4.77;;;;;;;13.13;100.00;97128.75;5032032;28;20608;-90
2021/04/11 08:35:53;;;;;;;6.90;4.63;;;;;;;12.76;100.00;97135.88;5034080;28;20542;-91
2021/04/11 08:38:35;;;;;;;5.83;4.70;;;;;;;12.74;100.00;97155.47;5033641;28;20186;-91
2021/04/11 08:41:34;;;;;;;5.33;4.73;;;;;;;12.82;100.00;97145.81;5033453;28;20211;-90
2021/04/11 08:44:21;;;;;;;5.27;3.87;;;;;;;12.83;100.00;97165.94;5033537;28;20337;-91
2021/04/11 08:47:11;;;;;;;4.47;3.63;;;;;;;13.37;100.00;97179.16;5033708;28;20561;-90
2021/04/11 08:49:46;;;;;;;10.30;5.37;;;;;;;13.74;100.00;97168.31;5033650;28;20636;-89
2021/04/11 08:52:29;;;;;;;10.23;6.00;;;;;;;14.52;100.00;97169.19;5032975;28;20733;-88
2021/04/11 08:55:04;;;;;;;4.13;3.37;;;;;;;13.48;100.00;97196.53;5033190;28;20186;-91
2021/04/11 08:57:39;;;;;;;4.73;3.03;;;;;;;13.12;100.00;97201.00;5032473;28;20198;-84
2021/04/11 09:00:18;;;;;;;18.13;3.60;;;;;;;12.61;100.00;97171.66;5032397;28;20295;-85
2021/04/11 09:03:17;;;;;;;5.90;3.50;;;;;;;13.24;100.00;97190.09;5033110;28;20192;-87
2021/04/11 09:05:55;;;;;;;8.33;4.13;;;;;;;13.91;100.00;97190.38;5005428;28;20259;-84
2021/04/11 09:08:30;;;;;;;4.17;3.10;;;;;;;14.28;100.00;97191.88;5032879;28;20222;-88
2021/04/11 09:11:12;;;;;;;6.67;3.77;;;;;;;14.17;100.00;97198.28;5033225;28;20250;-88
2021/04/11 09:13:52;;;;;;;4.90;4.33;;;;;;;13.98;100.00;97204.59;5032935;28;20191;-88
2021/04/11 09:16:30;;;;;;;5.37;3.90;;;;;;;14.64;100.00;97181.09;5033003;28;20280;-88
2021/04/11 09:19:14;;;;;;;3.77;3.37;;;;;;;14.14;100.00;97200.41;5042897;28;20246;-88
2021/04/11 09:22:10;;;;;;;3.20;2.83;;;;;;;14.86;100.00;97191.09;5033183;28;20197;-88
2021/04/11 09:24:43;;;;;;;4.33;3.43;;;;;;;15.78;100.00;97194.41;5033292;28;20572;-89
2021/04/11 09:28:07;;;;;;;4.97;4.20;;;;;;;15.91;100.00;97202.69;5032843;28;20472;-88
2021/04/11 09:31:09;;;;;;;8.00;6.87;;;;;;;14.52;100.00;97206.22;4996189;28;20281;-89
2021/04/11 09:33:56;;;;;;;10.23;6.37;;;;;;;14.57;100.00;97207.38;4996118;28;20248;-89
2021/04/11 09:36:33;;;;;;;8.63;5.83;;;;;;;14.34;100.00;97193.91;5032865;28;20252;-89
2021/04/11 09:39:24;;;;;;;5.13;3.37;;;;;;;14.62;100.00;97196.34;5033323;28;20245;-88
2021/04/11 09:42:07;;;;;;;5.47;4.37;;;;;;;15.51;100.00;97197.41;5032694;28;20730;-89
2021/04/11 09:45:09;;;;;;;4.40;4.00;;;;;;;15.18;100.00;97192.94;5032966;28;20564;-88
2021/04/11 09:48:00;;;;;;;8.77;4.90;;;;;;;15.53;100.00;97200.72;4995671;28;20666;-89
2021/04/11 09:50:48;;;;;;;5.40;3.80;;;;;;;15.49;100.00;97199.41;5033198;28;20580;-88
2021/04/11 09:53:45;;;;;;;7.13;6.40;;;;;;;15.71;100.00;97203.22;5032616;28;20325;-89
2021/04/11 09:56:26;;;;;;;3.77;3.47;;;;;;;14.82;100.00;97189.75;5032763;28;20691;-88
2021/04/11 09:59:13;;;;;;;5.83;4.63;;;;;;;14.86;100.00;97193.75;5032806;28;20256;-88
2021/04/11 10:01:48;;;;;;;6.50;4.20;;;;;;;14.90;100.00;97187.13;5032620;28;20179;-89
2021/04/11 10:04:30;;;;;;;7.53;5.03;;;;;;;14.68;100.00;97188.56;5032659;28;20191;-89
2021/04/11 10:07:20;;;;;;;3.70;3.17;;;;;;;14.57;100.00;97190.69;5032584;28;20189;-89
2021/04/11 10:10:02;;;;;;;9.37;4.50;;;;;;;14.96;100.00;97191.78;5032503;28;20274;-91
2021/04/11 10:13:06;;;;;;;3.20;3.00;;;;;;;15.08;100.00;97178.22;5029413;28;20192;-92
2021/04/11 10:15:38;;;;;;;14.27;5.83;;;;;;;15.42;100.00;97186.81;5013060;28;20188;-91
2021/04/11 10:18:28;;;;;;;4.67;3.80;;;;;;;15.23;100.00;97190.63;5013170;28;20261;-92
2021/04/11 10:21:07;;;;;;;5.57;4.03;;;;;;;15.50;100.00;97185.16;5010055;28;20314;-91
2021/04/11 10:23:44;;;;;;;7.10;3.97;;;;;;;15.33;100.00;97189.63;5012981;28;20202;-93
2021/04/11 10:26:19;;;;;;;4.53;3.83;;;;;;;15.11;100.00;97199.06;5016291;28;20765;-91
2021/04/11 10:28:52;;;;;;;4.03;3.67;;;;;;;15.69;100.00;97190.16;5016697;28;20280;-91
2021/04/11 10:31:27;;;;;;;7.03;3.83;;;;;;;15.86;100.00;97185.63;5016264;28;20262;-91
2021/04/11 10:34:05;;;;;;;4.67;3.23;;;;;;;16.03;100.00;97173.97;5016189;28;20183;-92
2021/04/11 10:36:40;;;;;;;6.07;4.10;;;;;;;15.72;100.00;97181.84;5016275;28;20200;-91
2021/04/11 10:39:17;;;;;;;5.27;3.40;;;;;;;15.20;100.00;97185.66;5016021;28;20179;-92
2021/04/11 10:42:17;;;;;;;4.30;3.47;;;;;;;15.10;100.00;97174.41;5016100;28;20261;-88
2021/04/11 10:44:58;;;;;;;7.27;3.70;;;;;;;14.86;100.00;97177.00;5001049;28;20294;-88
2021/04/11 10:47:47;;;;;;;5.60;3.67;;;;;;;14.73;100.00;97167.75;5016253;28;20192;-88
2021/04/11 10:50:22;;;;;;;5.50;4.67;;;;;;;15.03;100.00;97167.28;5016518;28;20329;-90
2021/04/11 10:53:14;;;;;;;5.70;3.87;;;;;;;15.04;100.00;97168.94;5015992;28;20313;-89
2021/04/11 10:56:03;;;;;;;7.57;4.07;;;;;;;15.06;100.00;97162.47;5013072;28;20286;-89
2021/04/11 10:58:46;;;;;;;4.13;3.83;;;;;;;14.90;100.00;97170.41;5012950;28;20726;-89
2021/04/11 11:01:36;;;;;;;4.30;3.90;;;;;;;14.06;100.00;97168.63;5015391;28;20211;-89
2021/04/11 11:04:48;;;;;;;3.27;2.97;;;;;;;13.93;100.00;97158.50;5015983;28;20199;-89
2021/04/11 11:07:41;;;;;;;4.80;4.20;;;;;;;14.67;100.00;97156.97;4999847;28;20210;-89
2021/04/11 11:10:14;;;;;;;3.60;2.87;;;;;;;14.70;100.00;97149.53;5015611;28;20228;-89
2021/04/11 11:13:07;;;;;;;5.03;3.17;;;;;;;14.76;100.00;97166.59;5015515;28;20278;-89
2021/04/11 11:15:58;;;;;;;6.03;4.10;;;;;;;15.35;100.00;97155.88;5013736;28;20286;-89
2021/04/11 11:18:55;;;;;;;4.13;3.70;;;;;;;15.56;100.00;97136.81;5015593;28;20279;-90
2021/04/11 11:21:55;;;;;;;4.63;3.23;;;;;;;14.69;100.00;97155.84;5015343;28;20218;-89
2021/04/11 11:24:34;;;;;;;4.77;3.60;;;;;;;14.66;100.00;97156.16;5011580;28;20199;-89
2021/04/11 11:27:31;;;;;;;6.30;3.27;;;;;;;15.89;100.00;97132.25;5015046;28;20202;-89
2021/04/11 11:30:22;;;;;;;4.07;3.60;;;;;;;16.44;100.00;97131.38;5015062;28;20287;-89
2021/04/11 11:33:03;;;;;;;5.20;4.00;;;;;;;16.14;100.00;97141.81;5015406;28;20208;-90
2021/04/11 11:35:31;;;;;;;3.97;3.50;;;;;;;15.13;100.00;97144.94;5014962;28;20187;-89
2021/04/11 11:38:06;;;;;;;4.30;3.70;;;;;;;14.98;100.00;97157.19;5015004;28;20253;-90
2021/04/11 11:40:39;;;;;;;6.30;3.60;;;;;;;15.23;100.00;97142.94;5021930;28;20698;-89
2021/04/11 11:43:17;;;;;;;4.30;3.40;;;;;;;15.70;100.00;97146.75;5034841;28;20722;-88
2021/04/11 11:46:00;;;;;;;3.40;3.07;;;;;;;15.51;100.00;97142.59;5034849;28;20317;-89
2021/04/11 11:48:51;;;;;;;3.57;3.17;;;;;;;15.11;100.00;97133.69;5034927;28;20193;-89
2021/04/11 11:51:31;;;;;;;4.87;3.60;;;;;;;15.17;100.00;97133.03;5034840;28;20656;-89
2021/04/11 11:54:04;;;;;;;8.97;7.27;;;;;;;15.47;100.00;97130.69;5034361;28;20662;-89
2021/04/11 11:56:36;;;;;;;5.00;3.93;;;;;;;15.62;100.00;97125.50;5034873;28;20680;-89
2021/04/11 11:59:10;;;;;;;4.23;2.83;;;;;;;15.67;100.00;97133.81;5034456;28;20229;-89
2021/04/11 12:01:44;;;;;;;3.10;2.77;;;;;;;14.76;100.00;97123.44;5034396;28;20221;-88
2021/04/11 12:04:41;;;;;;;3.70;2.70;;;;;;;14.63;100.00;97123.91;5028473;28;20229;-89
2021/04/11 12:07:17;;;;;;;3.00;2.80;;;;;;;15.08;100.00;97115.50;5021235;28;20238;-89
2021/04/11 12:09:46;;;;;;;3.53;2.93;;;;;;;15.47;100.00;97122.72;5014934;28;20254;-88
2021/04/11 12:12:18;;;;;;;3.27;2.50;;;;;;;15.83;100.00;97114.38;5034046;28;20245;-89
2021/04/11 12:14:56;;;;;;;3.67;3.00;;;;;;;15.61;100.00;97107.97;5034423;28;20187;-93
2021/04/11 12:17:29;;;;;;;3.97;3.43;;;;;;;15.25;100.00;97108.38;5034528;28;20249;-89